createdAt,value
2022-08-09T00:00:11.946Z,17.40
2022-08-09T00:02:49.167Z,17.30
2022-08-09T00:06:16.421Z,17.30
2022-08-09T00:08:10.092Z,17.20
2022-08-09T00:10:39.216Z,17.10
2022-08-09T00:13:17.040Z,17.00
2022-08-09T00:15:58.966Z,17.00
2022-08-09T00:18:26.607Z,16.90
2022-08-09T00:20:56.012Z,16.80
2022-08-09T00:23:56.331Z,16.70
2022-08-09T00:26:11.190Z,16.70
2022-08-09T00:28:39.558Z,16.60
2022-08-09T00:31:46.750Z,16.50
2022-08-09T00:33:55.338Z,16.50
2022-08-09T00:36:29.648Z,16.50
2022-08-09T00:38:58.530Z,16.40
2022-08-09T00:44:14.160Z,16.40
2022-08-09T00:44:26.466Z,16.40
2022-08-09T00:47:01.750Z,16.30
2022-08-09T00:49:34.850Z,16.30
2022-08-09T00:52:06.159Z,16.20
2022-08-09T00:54:45.492Z,16.20
2022-08-09T00:57:13.729Z,16.20
2022-08-09T00:59:52.782Z,16.10
2022-08-09T01:02:25.049Z,16.10
2022-08-09T01:05:14.086Z,16.10
2022-08-09T01:08:49.435Z,16.10
2022-08-09T01:11:33.467Z,16.00
2022-08-09T01:14:30.509Z,16.00
2022-08-09T01:17:10.872Z,15.90
2022-08-09T01:20:01.462Z,15.90
2022-08-09T01:24:03.597Z,15.90
2022-08-09T01:26:53.038Z,15.90
2022-08-09T01:29:41.200Z,15.80
2022-08-09T01:32:31.361Z,15.70
2022-08-09T01:35:18.073Z,15.70
2022-08-09T01:38:09.682Z,15.60
2022-08-09T01:40:52.337Z,15.60
2022-08-09T01:43:32.188Z,15.50
2022-08-09T01:46:18.367Z,15.50
2022-08-09T01:48:59.894Z,15.50
2022-08-09T01:51:42.904Z,15.40
2022-08-09T01:54:14.164Z,15.40
2022-08-09T01:56:47.229Z,15.40
2022-08-09T01:59:21.526Z,15.40
2022-08-09T02:01:59.231Z,15.30
2022-08-09T02:04:30.203Z,15.30
2022-08-09T02:08:34.738Z,15.20
2022-08-09T02:10:18.469Z,15.10
2022-08-09T02:13:00.015Z,15.10
2022-08-09T02:15:48.670Z,15.00
2022-08-09T02:18:21.222Z,15.00
2022-08-09T02:20:58.817Z,14.90
2022-08-09T02:23:47.027Z,14.90
2022-08-09T02:26:24.888Z,14.90
2022-08-09T02:29:00.105Z,14.90
2022-08-09T02:31:35.475Z,14.90
2022-08-09T02:34:13.847Z,14.80
2022-08-09T02:36:57.580Z,14.70
2022-08-09T02:39:39.740Z,14.80
2022-08-09T02:42:12.998Z,14.70
2022-08-09T02:44:44.839Z,14.70
2022-08-09T02:47:19.431Z,14.70
2022-08-09T02:50:16.843Z,14.70
2022-08-09T02:52:55.296Z,14.70
2022-08-09T02:55:46.116Z,14.60
2022-08-09T02:58:37.039Z,14.60
2022-08-09T03:01:06.100Z,14.50
2022-08-09T03:04:13.251Z,14.50
2022-08-09T03:06:27.971Z,14.50
2022-08-09T03:08:57.523Z,14.50
2022-08-09T03:12:04.393Z,14.40
2022-08-09T03:14:16.012Z,14.30
2022-08-09T03:16:47.442Z,14.30
2022-08-09T03:19:58.503Z,14.30
2022-08-09T03:22:12.549Z,14.30
2022-08-09T03:25:05.888Z,14.30
2022-08-09T03:27:45.908Z,14.20
2022-08-09T03:30:29.482Z,14.20
2022-08-09T03:33:05.795Z,14.20
2022-08-09T03:36:15.718Z,14.20
2022-08-09T03:38:31.126Z,14.20
2022-08-09T03:40:58.482Z,14.20
2022-08-09T03:43:31.443Z,14.10
2022-08-09T03:46:04.595Z,14.10
2022-08-09T03:48:52.257Z,14.10
2022-08-09T03:51:56.664Z,14.10
2022-08-09T03:54:11.768Z,14.00
2022-08-09T03:56:42.854Z,14.00
2022-08-09T03:59:20.878Z,14.00
2022-08-09T04:01:50.567Z,13.90
2022-08-09T04:04:18.251Z,13.90
2022-08-09T04:06:49.028Z,13.90
2022-08-09T04:09:41.687Z,13.90
2022-08-09T04:12:11.848Z,13.90
2022-08-09T04:14:53.691Z,13.90
2022-08-09T04:17:29.549Z,13.80
2022-08-09T04:19:57.179Z,13.80
2022-08-09T04:22:24.259Z,13.80
2022-08-09T04:24:54.982Z,13.80
2022-08-09T04:27:22.435Z,13.80
2022-08-09T04:29:50.490Z,13.70
2022-08-09T04:32:31.599Z,13.80
2022-08-09T04:35:08.543Z,13.70
2022-08-09T04:37:45.698Z,13.70
2022-08-09T04:40:19.120Z,13.70
2022-08-09T04:42:48.396Z,13.70
2022-08-09T04:45:16.672Z,13.80
2022-08-09T04:48:00.893Z,13.80
2022-08-09T04:50:31.960Z,13.80
2022-08-09T04:53:02.320Z,13.80
2022-08-09T04:55:35.367Z,13.80
2022-08-09T04:58:10.739Z,13.80
2022-08-09T05:00:40.892Z,13.90
2022-08-09T05:03:12.896Z,13.90
2022-08-09T05:06:04.571Z,13.90
2022-08-09T05:08:35.284Z,14.00
2022-08-09T05:11:03.413Z,14.10
2022-08-09T05:13:34.169Z,14.10
2022-08-09T05:16:08.021Z,14.10
2022-08-09T05:18:50.536Z,14.20
2022-08-09T05:21:24.649Z,14.30
2022-08-09T05:24:01.432Z,14.30
2022-08-09T05:26:45.307Z,14.50
2022-08-09T05:29:22.699Z,14.60
2022-08-09T05:31:57.462Z,14.70
2022-08-09T05:34:32.333Z,14.90
2022-08-09T05:37:05.027Z,15.00
2022-08-09T05:39:42.336Z,15.20
2022-08-09T05:42:21.543Z,15.40
2022-08-09T05:44:54.417Z,15.60
2022-08-09T05:47:23.860Z,15.80
2022-08-09T05:50:30.292Z,15.90
2022-08-09T05:52:42.312Z,16.10
2022-08-09T05:55:18.277Z,16.30
2022-08-09T05:57:50.705Z,16.40
2022-08-09T06:00:29.709Z,16.60
2022-08-09T06:03:03.424Z,16.80
2022-08-09T06:05:57.344Z,16.90
2022-08-09T06:08:24.426Z,17.00
2022-08-09T06:10:57.012Z,17.10
2022-08-09T06:13:28.673Z,17.30
2022-08-09T06:16:05.374Z,17.40
2022-08-09T06:18:34.125Z,17.60
2022-08-09T06:21:02.571Z,17.70
2022-08-09T06:23:55.420Z,17.80
2022-08-09T06:26:22.384Z,17.90
2022-08-09T06:29:00.425Z,18.00
2022-08-09T06:31:40.350Z,18.20
2022-08-09T06:34:22.834Z,18.30
2022-08-09T06:36:59.381Z,18.50
2022-08-09T06:39:48.831Z,18.60
2022-08-09T06:42:24.722Z,18.70
2022-08-09T06:44:57.286Z,18.90
2022-08-09T06:47:24.859Z,18.90
2022-08-09T06:50:13.757Z,19.00
2022-08-09T06:52:46.949Z,19.20
2022-08-09T06:55:17.386Z,19.40
2022-08-09T06:58:02.570Z,19.60
2022-08-09T07:00:52.110Z,19.90
2022-08-09T07:03:17.930Z,20.50
2022-08-09T07:05:53.642Z,21.60
2022-08-09T07:08:32.063Z,23.00
2022-08-09T07:10:59.120Z,24.60
2022-08-09T07:13:27.975Z,25.40
2022-08-09T07:16:42.208Z,25.40
2022-08-09T07:18:44.239Z,25.10
2022-08-09T07:21:14.732Z,25.20
2022-08-09T07:23:46.604Z,25.70
2022-08-09T07:26:24.739Z,26.20
2022-08-09T07:29:09.140Z,26.90
2022-08-09T07:31:45.326Z,27.20
2022-08-09T07:34:20.551Z,26.70
2022-08-09T07:36:49.732Z,25.30
2022-08-09T07:39:20.116Z,24.60
2022-08-09T07:42:06.467Z,24.40
2022-08-09T07:44:50.934Z,24.10
2022-08-09T07:47:21.063Z,23.70
2022-08-09T07:50:05.227Z,23.30
2022-08-09T07:52:35.922Z,23.00
2022-08-09T07:55:09.788Z,22.90
2022-08-09T07:57:47.176Z,22.70
2022-08-09T08:00:20.653Z,22.70
2022-08-09T08:03:04.665Z,22.80
2022-08-09T08:05:53.910Z,23.60
2022-08-09T08:09:01.019Z,24.70
2022-08-09T08:12:10.577Z,26.00
2022-08-09T08:13:56.542Z,26.80
2022-08-09T08:16:31.407Z,27.60
2022-08-09T08:19:02.637Z,28.10
2022-08-09T08:21:30.730Z,28.20
2022-08-09T08:24:00.928Z,28.10
2022-08-09T08:26:42.111Z,28.00
2022-08-09T08:29:20.443Z,28.00
2022-08-09T08:32:04.029Z,28.10
2022-08-09T08:34:34.745Z,28.30
2022-08-09T08:37:05.183Z,28.40
2022-08-09T08:39:39.722Z,28.30
2022-08-09T08:42:10.698Z,28.00
2022-08-09T08:44:38.106Z,27.70
2022-08-09T08:47:12.100Z,27.60
2022-08-09T08:49:46.747Z,27.40
2022-08-09T08:52:58.520Z,27.20
2022-08-09T08:55:10.745Z,27.00
2022-08-09T08:57:40.851Z,26.90
2022-08-09T09:00:20.393Z,26.90
2022-08-09T09:03:04.705Z,26.50
2022-08-09T09:05:58.882Z,26.20
2022-08-09T09:08:30.814Z,26.30
2022-08-09T09:11:03.835Z,26.20
2022-08-09T09:13:54.662Z,26.20
2022-08-09T09:16:34.167Z,26.20
2022-08-09T09:19:40.291Z,26.30
2022-08-09T09:21:58.047Z,26.40
2022-08-09T09:24:30.557Z,26.40
2022-08-09T09:27:01.557Z,26.60
2022-08-09T09:30:12.068Z,26.70
2022-08-09T09:32:35.038Z,26.80
2022-08-09T09:35:09.938Z,26.80
2022-08-09T09:37:40.995Z,26.70
2022-08-09T09:40:11.698Z,26.60
2022-08-09T09:42:39.439Z,26.40
2022-08-09T09:45:10.539Z,26.50
2022-08-09T09:47:56.163Z,26.50
2022-08-09T09:50:49.727Z,26.70
2022-08-09T09:53:57.401Z,26.70
2022-08-09T09:56:19.722Z,26.80
2022-08-09T09:58:58.520Z,27.00
2022-08-09T10:01:36.796Z,27.20
2022-08-09T10:04:22.963Z,27.40
2022-08-09T10:06:57.653Z,27.40
2022-08-09T10:09:25.795Z,27.40
2022-08-09T10:12:14.932Z,27.60
2022-08-09T10:14:51.379Z,27.80
2022-08-09T10:17:38.979Z,28.00
2022-08-09T10:20:27.701Z,28.20
2022-08-09T10:23:22.018Z,28.20
2022-08-09T10:26:07.625Z,28.40
2022-08-09T10:28:40.413Z,28.50
2022-08-09T10:34:11.216Z,28.80
2022-08-09T10:36:54.294Z,28.80
2022-08-09T10:39:23.362Z,28.90
2022-08-09T10:41:55.481Z,29.20
2022-08-09T10:44:26.475Z,29.30
2022-08-09T10:48:13.154Z,29.30
2022-08-09T10:51:12.292Z,29.20
2022-08-09T10:54:12.469Z,29.00
2022-08-09T10:56:42.989Z,29.20
2022-08-09T10:59:31.197Z,29.40
2022-08-09T11:03:13.504Z,29.40
2022-08-09T11:05:25.340Z,29.40
2022-08-09T11:07:59.330Z,29.40
2022-08-09T11:10:53.334Z,29.50
2022-08-09T11:13:50.660Z,29.60
2022-08-09T11:16:38.699Z,29.70
2022-08-09T11:19:10.409Z,30.10
2022-08-09T11:22:05.393Z,30.50
2022-08-09T11:25:10.187Z,30.40
2022-08-09T11:28:03.943Z,30.60
2022-08-09T11:30:37.557Z,30.60
2022-08-09T11:33:17.059Z,30.80
2022-08-09T11:35:49.920Z,30.70
2022-08-09T11:38:32.085Z,30.60
2022-08-09T11:41:38.375Z,30.60
2022-08-09T11:44:08.521Z,30.60
2022-08-09T11:46:52.844Z,30.60
2022-08-09T11:49:28.121Z,30.40
2022-08-09T11:53:00.729Z,30.30
2022-08-09T11:55:34.993Z,30.50
2022-08-09T11:58:30.479Z,30.90
2022-08-09T12:01:08.743Z,31.20
2022-08-09T12:03:56.754Z,31.50
2022-08-09T12:06:32.496Z,31.80
2022-08-09T12:09:19.367Z,31.80
2022-08-09T12:12:03.216Z,31.80
2022-08-09T12:14:40.789Z,31.70
2022-08-09T12:17:27.572Z,31.20
2022-08-09T12:20:23.454Z,31.00
2022-08-09T12:22:56.540Z,31.00
2022-08-09T12:25:32.055Z,31.20
2022-08-09T12:29:11.904Z,31.30
2022-08-09T12:31:57.963Z,31.60
2022-08-09T12:34:11.658Z,31.90
2022-08-09T12:36:59.057Z,32.10
2022-08-09T12:39:43.460Z,32.40
2022-08-09T12:42:16.337Z,32.30
2022-08-09T12:44:46.306Z,31.90
2022-08-09T12:47:22.996Z,32.00
2022-08-09T12:50:09.643Z,31.70
2022-08-09T12:52:58.549Z,31.80
2022-08-09T12:56:14.664Z,32.10
2022-08-09T12:58:28.057Z,32.00
2022-08-09T13:00:56.283Z,32.20
2022-08-09T13:03:52.769Z,32.20
2022-08-09T13:06:34.409Z,32.40
2022-08-09T13:09:27.117Z,32.60
2022-08-09T13:12:03.772Z,32.40
2022-08-09T13:14:42.858Z,32.20
2022-08-09T13:17:44.503Z,32.10
2022-08-09T13:20:14.379Z,31.50
2022-08-09T13:23:05.385Z,31.50
2022-08-09T13:25:54.388Z,31.60
2022-08-09T13:28:33.807Z,31.90
2022-08-09T13:32:13.653Z,31.90
2022-08-09T13:33:57.050Z,32.10
2022-08-09T13:36:40.308Z,32.10
2022-08-09T13:41:17.298Z,32.40
2022-08-09T13:42:17.882Z,32.60
2022-08-09T13:44:46.280Z,32.70
2022-08-09T13:47:33.676Z,31.90
2022-08-09T13:50:18.195Z,31.70
2022-08-09T13:52:57.829Z,31.60
2022-08-09T13:55:24.927Z,31.50
2022-08-09T13:57:58.457Z,31.70
2022-08-09T14:00:29.482Z,32.00
2022-08-09T14:03:16.590Z,32.20
2022-08-09T14:06:00.569Z,32.40
2022-08-09T14:08:31.501Z,32.20
2022-08-09T14:11:00.566Z,32.30
2022-08-09T14:14:24.006Z,32.60
2022-08-09T14:16:28.268Z,32.60
2022-08-09T14:18:58.144Z,32.40
2022-08-09T14:21:29.151Z,32.30
2022-08-09T14:23:57.577Z,32.30
2022-08-09T14:26:33.601Z,32.30
2022-08-09T14:29:07.972Z,32.20
2022-08-09T14:31:54.704Z,32.10
2022-08-09T14:34:31.564Z,31.80
2022-08-09T14:37:08.035Z,31.40
2022-08-09T14:39:48.065Z,31.40
2022-08-09T14:42:30.700Z,31.20
2022-08-09T14:45:14.871Z,31.10
2022-08-09T14:47:57.177Z,30.90
2022-08-09T14:50:27.849Z,30.60
2022-08-09T14:52:54.844Z,30.60
2022-08-09T14:55:22.034Z,30.30
2022-08-09T14:57:49.859Z,30.40
2022-08-09T15:00:17.914Z,30.40
2022-08-09T15:02:47.210Z,30.20
2022-08-09T15:05:18.685Z,29.90
2022-08-09T15:07:56.494Z,29.80
2022-08-09T15:10:25.625Z,29.70
2022-08-09T15:12:56.878Z,29.60
2022-08-09T15:15:28.545Z,29.50
2022-08-09T15:17:56.828Z,29.50
2022-08-09T15:21:57.689Z,29.30
2022-08-09T15:24:01.744Z,29.10
2022-08-09T15:26:00.710Z,28.90
2022-08-09T15:28:32.990Z,29.00
2022-08-09T15:31:13.429Z,29.00
2022-08-09T15:34:31.095Z,28.90
2022-08-09T15:36:32.062Z,28.90
2022-08-09T15:39:00.049Z,28.90
2022-08-09T15:41:31.660Z,28.90
2022-08-09T15:44:01.905Z,28.80
2022-08-09T15:46:34.399Z,28.80
2022-08-09T15:49:22.195Z,28.90
2022-08-09T15:52:03.876Z,28.90
2022-08-09T15:54:46.230Z,28.80
2022-08-09T15:57:35.308Z,28.80
2022-08-09T16:00:24.609Z,28.90
2022-08-09T16:02:56.002Z,28.90
2022-08-09T16:05:47.739Z,28.80
2022-08-09T16:08:29.938Z,28.60
2022-08-09T16:11:02.458Z,28.40
2022-08-09T16:14:03.638Z,28.40
2022-08-09T16:16:20.388Z,28.60
2022-08-09T16:18:59.773Z,28.70
2022-08-09T16:21:26.753Z,28.60
2022-08-09T16:24:02.173Z,28.70
2022-08-09T16:26:35.464Z,28.60
2022-08-09T16:29:12.449Z,28.50
2022-08-09T16:32:19.375Z,28.50
2022-08-09T16:34:54.618Z,28.50
2022-08-09T16:37:53.328Z,28.30
2022-08-09T16:40:12.768Z,28.30
2022-08-09T16:42:45.166Z,28.20
2022-08-09T16:45:19.620Z,28.10
2022-08-09T16:48:40.748Z,28.10
2022-08-09T16:50:38.654Z,28.30
2022-08-09T16:53:06.469Z,28.30
2022-08-09T16:55:59.016Z,28.20
2022-08-09T16:58:23.144Z,28.20
2022-08-09T17:00:50.631Z,28.20
2022-08-09T17:03:21.704Z,28.20
2022-08-09T17:06:06.771Z,28.20
2022-08-09T17:08:45.394Z,28.00
2022-08-09T17:11:32.878Z,27.90
2022-08-09T17:14:26.430Z,27.90
2022-08-09T17:17:00.067Z,27.90
2022-08-09T17:20:05.915Z,27.90
2022-08-09T17:22:23.518Z,27.80
2022-08-09T17:24:55.232Z,27.80
2022-08-09T17:27:22.899Z,27.70
2022-08-09T17:29:52.484Z,27.70
2022-08-09T17:32:37.455Z,27.50
2022-08-09T17:35:12.196Z,27.40
2022-08-09T17:38:14.445Z,27.20
2022-08-09T17:40:29.834Z,27.10
2022-08-09T17:42:59.521Z,27.10
2022-08-09T17:46:01.805Z,27.10
2022-08-09T17:48:17.642Z,27.00
2022-08-09T17:50:55.785Z,26.90
2022-08-09T17:53:23.732Z,26.80
2022-08-09T17:55:54.235Z,26.80
2022-08-09T17:58:26.929Z,26.70
2022-08-09T18:00:58.359Z,26.70
2022-08-09T18:03:26.078Z,26.60
2022-08-09T18:05:56.341Z,26.50
2022-08-09T18:08:27.451Z,26.50
2022-08-09T18:11:00.860Z,26.40
2022-08-09T18:13:43.140Z,26.40
2022-08-09T18:16:28.907Z,26.30
2022-08-09T18:19:03.967Z,26.20
2022-08-09T18:21:46.053Z,26.20
2022-08-09T18:24:17.289Z,26.10
2022-08-09T18:26:46.518Z,26.00
2022-08-09T18:30:35.571Z,26.00
2022-08-09T18:32:03.188Z,25.90
2022-08-09T18:34:32.703Z,25.80
2022-08-09T18:36:59.679Z,25.70
2022-08-09T18:39:32.773Z,25.60
2022-08-09T18:42:08.928Z,25.50
2022-08-09T18:44:36.246Z,25.40
2022-08-09T18:47:07.516Z,25.40
2022-08-09T18:49:46.280Z,25.20
2022-08-09T18:52:24.782Z,25.10
2022-08-09T18:54:53.435Z,25.00
2022-08-09T18:57:22.896Z,24.90
2022-08-09T18:59:55.404Z,24.90
2022-08-09T19:02:31.759Z,24.80
2022-08-09T19:05:20.524Z,24.70
2022-08-09T19:08:03.650Z,24.60
2022-08-09T19:10:39.172Z,24.50
2022-08-09T19:13:22.059Z,24.40
2022-08-09T19:15:59.031Z,24.30
2022-08-09T19:18:36.615Z,24.30
2022-08-09T19:21:09.688Z,24.10
2022-08-09T19:24:32.096Z,24.10
2022-08-09T19:26:31.510Z,24.00
2022-08-09T19:29:03.317Z,23.90
2022-08-09T19:31:44.063Z,23.80
2022-08-09T19:34:21.650Z,23.80
2022-08-09T19:36:52.342Z,23.70
2022-08-09T19:39:20.712Z,23.60
2022-08-09T19:41:56.846Z,23.50
2022-08-09T19:44:24.169Z,23.50
2022-08-09T19:46:53.237Z,23.40
2022-08-09T19:50:06.632Z,23.40
2022-08-09T19:52:10.046Z,23.30
2022-08-09T19:54:39.839Z,23.20
2022-08-09T19:57:08.452Z,23.20
2022-08-09T19:59:57.755Z,23.10
2022-08-09T20:04:07.014Z,23.10
2022-08-09T20:05:14.697Z,23.00
2022-08-09T20:07:58.969Z,23.00
2022-08-09T20:10:34.719Z,23.00
2022-08-09T20:13:06.158Z,22.90
2022-08-09T20:16:35.604Z,22.80
2022-08-09T20:18:27.851Z,22.80
2022-08-09T20:20:58.317Z,22.70
2022-08-09T20:23:38.935Z,22.60
2022-08-09T20:26:15.539Z,22.50
2022-08-09T20:28:48.616Z,22.50
2022-08-09T20:31:18.261Z,22.40
2022-08-09T20:33:58.240Z,22.40
2022-08-09T20:36:28.824Z,22.40
2022-08-09T20:39:28.399Z,22.30
2022-08-09T20:41:44.060Z,22.20
2022-08-09T20:44:15.101Z,22.10
2022-08-09T20:46:44.928Z,22.10
2022-08-09T20:49:16.681Z,22.00
2022-08-09T20:51:50.817Z,22.00
2022-08-09T20:54:18.235Z,21.90
2022-08-09T20:56:49.894Z,21.90
2022-08-09T21:00:20.025Z,21.80
2022-08-09T21:02:17.633Z,21.80
2022-08-09T21:05:52.968Z,21.70
2022-08-09T21:07:40.447Z,21.70
2022-08-09T21:10:11.986Z,21.60
2022-08-09T21:15:34.031Z,21.60
2022-08-09T21:18:21.118Z,21.50
2022-08-09T21:20:54.144Z,21.50
2022-08-09T21:23:47.266Z,21.40
2022-08-09T21:26:12.674Z,21.40
2022-08-09T21:28:55.657Z,21.40
2022-08-09T21:31:24.584Z,21.30
2022-08-09T21:34:11.807Z,21.30
2022-08-09T21:36:38.795Z,21.30
2022-08-09T21:39:27.692Z,21.20
2022-08-09T21:42:04.871Z,21.30
2022-08-09T21:44:38.075Z,21.20
2022-08-09T21:47:08.670Z,21.10
2022-08-09T21:49:39.553Z,21.10
2022-08-09T21:52:16.499Z,21.00
2022-08-09T21:54:53.671Z,21.00
2022-08-09T21:57:36.911Z,21.00
2022-08-09T22:00:25.411Z,21.00
2022-08-09T22:02:59.117Z,20.90
2022-08-09T22:05:37.203Z,20.90
2022-08-09T22:08:13.606Z,20.80
2022-08-09T22:11:50.355Z,20.80
2022-08-09T22:13:34.625Z,20.70
2022-08-09T22:16:07.517Z,20.70
2022-08-09T22:18:37.438Z,20.60
2022-08-09T22:21:09.434Z,20.60
2022-08-09T22:23:59.689Z,20.60
2022-08-09T22:26:35.480Z,20.50
2022-08-09T22:29:10.041Z,20.50
2022-08-09T22:31:50.122Z,20.40
2022-08-09T22:34:25.858Z,20.30
2022-08-09T22:36:58.370Z,20.30
2022-08-09T22:39:57.373Z,20.20
2022-08-09T22:42:21.548Z,20.10
2022-08-09T22:45:00.510Z,20.10
2022-08-09T22:48:12.381Z,20.10
2022-08-09T22:50:26.778Z,20.10
2022-08-09T22:52:57.629Z,20.00
2022-08-09T22:55:39.654Z,19.90
2022-08-09T22:58:30.920Z,19.90
2022-08-09T23:01:02.384Z,19.80
2022-08-09T23:04:04.777Z,19.70
2022-08-09T23:06:34.986Z,19.70
2022-08-09T23:09:05.536Z,19.60
2022-08-09T23:11:32.801Z,19.50
2022-08-09T23:13:59.822Z,19.50
2022-08-09T23:16:26.903Z,19.40
2022-08-09T23:18:53.887Z,19.40
2022-08-09T23:21:25.261Z,19.40
2022-08-09T23:24:05.709Z,19.30
2022-08-09T23:26:39.076Z,19.30
2022-08-09T23:29:08.557Z,19.20
2022-08-09T23:31:35.542Z,19.20
2022-08-09T23:34:03.864Z,19.10
2022-08-09T23:36:32.110Z,19.10
2022-08-09T23:38:59.349Z,19.10
2022-08-09T23:41:27.792Z,19.00
2022-08-09T23:44:00.783Z,19.00
2022-08-09T23:46:30.713Z,19.00
2022-08-09T23:48:58.915Z,18.90
2022-08-09T23:51:26.958Z,18.90
2022-08-09T23:53:55.405Z,18.80
2022-08-09T23:56:52.205Z,18.80
2022-08-09T23:59:16.910Z,18.80
